createdAt,value
2022-09-15T00:00:14.158Z,5.18
2022-09-15T00:05:38.031Z,4.88
2022-09-15T00:11:07.292Z,12.05
2022-09-15T00:16:33.375Z,4.07
2022-09-15T00:21:57.002Z,7.85
2022-09-15T00:27:20.573Z,4.85
2022-09-15T00:32:45.491Z,6.50
2022-09-15T00:38:10.739Z,5.70
2022-09-15T00:43:47.511Z,6.10
2022-09-15T00:49:15.669Z,7.63
2022-09-15T00:54:42.890Z,8.52
2022-09-15T01:00:09.512Z,6.78
2022-09-15T01:05:40.549Z,6.10
2022-09-15T01:11:04.457Z,6.85
2022-09-15T01:16:34.218Z,8.70
2022-09-15T01:22:10.291Z,6.80
2022-09-15T01:27:58.041Z,7.70
2022-09-15T01:33:36.436Z,4.93
2022-09-15T01:39:05.830Z,4.60
2022-09-15T01:44:33.044Z,7.25
2022-09-15T01:50:04.080Z,3.97
2022-09-15T01:55:32.790Z,5.50
2022-09-15T02:01:00.347Z,4.30
2022-09-15T02:06:36.656Z,8.38
2022-09-15T02:12:07.836Z,5.75
2022-09-15T02:17:35.415Z,4.15
2022-09-15T02:23:08.456Z,3.95
2022-09-15T02:28:38.635Z,3.25
2022-09-15T02:34:06.934Z,6.05
2022-09-15T02:39:35.260Z,2.40
2022-09-15T02:44:59.706Z,5.28
2022-09-15T02:50:23.277Z,4.15
2022-09-15T02:55:48.443Z,2.28
2022-09-15T03:01:16.076Z,2.80
2022-09-15T03:06:39.820Z,8.50
2022-09-15T03:12:05.127Z,3.42
2022-09-15T03:17:28.690Z,1.90
2022-09-15T03:22:52.341Z,3.15
2022-09-15T03:28:17.298Z,2.63
2022-09-15T03:33:41.207Z,3.65
2022-09-15T03:39:05.091Z,4.85
2022-09-15T03:44:30.155Z,4.43
2022-09-15T03:49:53.691Z,3.63
2022-09-15T03:55:17.460Z,4.68
2022-09-15T04:00:42.537Z,6.50
2022-09-15T04:06:06.432Z,2.92
2022-09-15T04:11:30.116Z,3.92
2022-09-15T04:16:55.090Z,3.22
2022-09-15T04:22:18.701Z,3.28
2022-09-15T04:27:42.495Z,4.97
2022-09-15T04:33:08.307Z,2.40
2022-09-15T04:38:32.351Z,4.05
2022-09-15T04:43:56.644Z,2.10
2022-09-15T04:49:21.646Z,2.58
2022-09-15T04:54:45.410Z,4.05
2022-09-15T05:00:10.599Z,4.32
2022-09-15T05:05:36.102Z,5.50
2022-09-15T05:11:00.919Z,6.47
2022-09-15T05:16:26.620Z,7.68
2022-09-15T05:21:51.585Z,3.95
2022-09-15T05:27:15.181Z,6.32
2022-09-15T05:32:38.748Z,7.25
2022-09-15T05:38:03.745Z,7.00
2022-09-15T05:43:27.347Z,7.45
2022-09-15T05:48:51.249Z,4.10
2022-09-15T05:54:16.233Z,8.70
2022-09-15T05:59:41.994Z,5.97
2022-09-15T06:05:06.147Z,7.55
2022-09-15T06:10:31.084Z,4.10
2022-09-15T06:15:54.711Z,4.95
2022-09-15T06:21:20.355Z,4.50
2022-09-15T06:26:45.287Z,6.00
2022-09-15T06:32:08.968Z,7.82
2022-09-15T06:37:32.635Z,6.63
2022-09-15T06:42:58.280Z,4.95
2022-09-15T06:48:24.910Z,4.47
2022-09-15T06:53:49.486Z,9.63
2022-09-15T06:59:15.595Z,3.55
2022-09-15T07:04:39.534Z,6.28
2022-09-15T07:10:03.152Z,6.72
2022-09-15T07:15:28.117Z,6.15
2022-09-15T07:20:52.641Z,4.25
2022-09-15T07:26:18.096Z,4.65
2022-09-15T07:31:43.131Z,7.90
2022-09-15T07:37:06.729Z,4.15
2022-09-15T07:42:34.771Z,4.32
2022-09-15T07:48:00.476Z,1.73
2022-09-15T07:53:24.108Z,5.63
2022-09-15T07:58:47.976Z,1.90
2022-09-15T08:04:12.946Z,5.70
2022-09-15T08:09:37.781Z,3.20
2022-09-15T08:15:01.413Z,5.85
2022-09-15T08:20:26.411Z,4.18
2022-09-15T08:25:51.638Z,5.88
2022-09-15T08:31:16.104Z,2.60
2022-09-15T08:36:41.191Z,3.65
2022-09-15T08:42:05.784Z,2.05
2022-09-15T08:47:33.404Z,1.85
2022-09-15T08:53:03.784Z,3.88
2022-09-15T08:58:30.714Z,3.50
2022-09-15T09:04:24.620Z,3.13
2022-09-15T09:09:57.157Z,4.35
2022-09-15T09:15:32.454Z,2.70
2022-09-15T09:21:05.476Z,1.55
2022-09-15T09:26:32.559Z,2.33
2022-09-15T09:31:58.110Z,4.22
2022-09-15T09:37:21.845Z,2.47
2022-09-15T09:42:47.255Z,1.50
2022-09-15T09:48:16.508Z,2.45
2022-09-15T09:53:40.094Z,3.75
2022-09-15T09:59:05.328Z,0.70
2022-09-15T10:04:29.526Z,1.17
2022-09-15T10:09:58.347Z,3.10
2022-09-15T10:20:50.652Z,2.30
2022-09-15T10:26:33.003Z,0.85
2022-09-15T10:32:25.360Z,3.95
2022-09-15T10:38:04.983Z,2.88
2022-09-15T10:43:40.470Z,2.72
2022-09-15T10:49:19.836Z,3.97
2022-09-15T10:54:56.459Z,5.80
2022-09-15T11:00:22.710Z,2.67
2022-09-15T11:05:55.532Z,2.72
2022-09-15T11:11:28.382Z,5.68
2022-09-15T11:17:08.254Z,6.05
2022-09-15T11:22:36.372Z,6.18
2022-09-15T11:28:05.569Z,5.63
2022-09-15T11:33:33.548Z,5.55
2022-09-15T11:39:06.696Z,9.13
2022-09-15T11:44:32.505Z,11.43
2022-09-15T11:49:59.073Z,4.93
2022-09-15T11:55:31.422Z,4.28
2022-09-15T12:01:00.204Z,10.57
2022-09-15T12:06:31.142Z,7.45
2022-09-15T12:12:02.033Z,9.20
2022-09-15T12:17:32.387Z,8.18
2022-09-15T12:23:01.266Z,5.53
2022-09-15T12:28:39.650Z,7.68
2022-09-15T12:34:06.487Z,4.23
2022-09-15T12:39:32.879Z,4.85
2022-09-15T12:45:01.771Z,8.93
2022-09-15T12:50:30.371Z,11.48
2022-09-15T12:55:56.426Z,58.50
2022-09-15T13:01:48.161Z,6.65
2022-09-15T13:07:33.945Z,4.32
2022-09-15T13:13:10.713Z,7.05
2022-09-15T13:18:36.086Z,4.68
2022-09-15T13:24:02.014Z,7.85
2022-09-15T13:29:27.961Z,4.55
2022-09-15T13:35:28.920Z,2.45
2022-09-15T13:41:23.417Z,8.63
2022-09-15T13:46:57.871Z,11.15
2022-09-15T13:52:47.472Z,6.47
2022-09-15T14:04:02.416Z,3.90
2022-09-15T14:09:28.990Z,6.50
2022-09-15T14:14:58.675Z,5.63
2022-09-15T14:20:28.996Z,23.70
2022-09-15T14:25:52.971Z,14.10
2022-09-15T14:31:18.433Z,13.05
2022-09-15T14:36:42.219Z,11.50
2022-09-15T14:42:21.479Z,11.75
2022-09-15T14:47:46.891Z,13.45
2022-09-15T14:53:14.562Z,12.35
2022-09-15T14:58:43.057Z,45.92
2022-09-15T15:04:16.683Z,9.70
2022-09-15T15:09:44.751Z,10.50
2022-09-15T15:15:11.588Z,15.93
2022-09-15T15:20:36.536Z,15.15
2022-09-15T15:26:33.997Z,12.77
2022-09-15T15:32:05.327Z,14.65
2022-09-15T15:37:32.331Z,18.90
2022-09-15T15:42:59.931Z,15.63
2022-09-15T15:48:24.156Z,10.45
2022-09-15T15:53:49.147Z,10.23
2022-09-15T15:59:14.579Z,9.00
2022-09-15T16:04:38.240Z,12.77
2022-09-15T16:10:03.640Z,17.33
2022-09-15T16:15:28.047Z,6.43
2022-09-15T16:20:51.669Z,9.70
2022-09-15T16:26:19.639Z,6.85
2022-09-15T16:31:43.648Z,5.82
2022-09-15T16:37:08.725Z,7.47
2022-09-15T16:42:33.766Z,6.57
2022-09-15T16:47:57.398Z,5.65
2022-09-15T16:53:23.006Z,5.53
2022-09-15T16:58:47.999Z,6.45
2022-09-15T17:04:16.811Z,6.88
2022-09-15T17:09:40.574Z,4.72
2022-09-15T17:15:18.881Z,7.53
2022-09-15T17:20:43.146Z,6.90
2022-09-15T17:26:11.320Z,5.78
2022-09-15T17:31:36.368Z,8.13
2022-09-15T17:37:00.003Z,13.52
2022-09-15T17:42:23.710Z,19.98
2022-09-15T17:47:49.276Z,15.38
2022-09-15T17:53:14.347Z,13.93
2022-09-15T17:58:38.030Z,13.75
2022-09-15T18:04:03.399Z,13.93
2022-09-15T18:09:27.094Z,15.40
2022-09-15T18:14:51.064Z,13.50
2022-09-15T18:20:18.478Z,16.83
2022-09-15T18:25:42.692Z,22.98
2022-09-15T18:31:06.731Z,11.90
2022-09-15T18:36:32.030Z,19.65
2022-09-15T18:41:55.637Z,13.15
2022-09-15T18:47:19.280Z,13.45
2022-09-15T18:52:44.504Z,10.32
2022-09-15T18:58:08.153Z,15.40
2022-09-15T19:03:34.189Z,15.00
2022-09-15T19:08:59.423Z,12.45
2022-09-15T19:14:23.071Z,11.57
2022-09-15T19:19:47.269Z,10.27
2022-09-15T19:25:13.495Z,14.85
2022-09-15T19:30:37.191Z,9.32
2022-09-15T19:36:24.216Z,7.13
2022-09-15T19:41:48.975Z,7.97
2022-09-15T19:47:12.606Z,8.75
2022-09-15T19:52:36.342Z,7.70
2022-09-15T19:58:01.986Z,8.07
2022-09-15T20:03:28.365Z,8.43
2022-09-15T20:08:53.836Z,11.32
2022-09-15T20:14:18.971Z,9.65
2022-09-15T20:19:42.694Z,7.68
2022-09-15T20:25:06.974Z,12.80
2022-09-15T20:30:35.423Z,17.77
2022-09-15T20:36:03.855Z,8.02
2022-09-15T20:41:29.373Z,12.85
2022-09-15T20:46:54.999Z,12.80
2022-09-15T20:52:18.775Z,12.57
2022-09-15T20:57:42.378Z,13.88
2022-09-15T21:03:07.375Z,19.10
2022-09-15T21:08:34.807Z,12.32
2022-09-15T21:13:58.762Z,13.75
2022-09-15T21:19:23.845Z,14.20
2022-09-15T21:24:47.618Z,18.75
2022-09-15T21:30:16.957Z,21.73
2022-09-15T21:35:52.144Z,21.48
2022-09-15T21:41:17.789Z,16.42
2022-09-15T21:46:41.418Z,16.33
2022-09-15T21:52:06.461Z,27.35
2022-09-15T21:57:30.375Z,20.70
2022-09-15T22:02:54.048Z,24.08
2022-09-15T22:08:19.417Z,23.17
2022-09-15T22:13:44.636Z,18.73
2022-09-15T22:19:09.695Z,20.85
2022-09-15T22:24:34.699Z,17.10
2022-09-15T22:29:58.379Z,23.80
2022-09-15T22:35:21.973Z,24.35
2022-09-15T22:40:47.101Z,22.05
2022-09-15T22:46:12.094Z,22.63
2022-09-15T22:51:35.761Z,20.25
2022-09-15T22:57:00.711Z,22.83
2022-09-15T23:02:24.373Z,25.00
2022-09-15T23:07:48.035Z,23.42
2022-09-15T23:13:13.094Z,28.65
2022-09-15T23:18:37.345Z,33.90
2022-09-15T23:24:01.537Z,25.85
2022-09-15T23:29:26.787Z,28.42
2022-09-15T23:34:50.420Z,29.92
2022-09-15T23:40:14.100Z,27.08
2022-09-15T23:45:39.896Z,19.75
2022-09-15T23:51:04.129Z,12.32
2022-09-15T23:56:27.902Z,10.90
